createdAt,value
2023-06-29T00:01:00.337Z,2.70
2023-06-29T00:04:02.803Z,2.35
2023-06-29T00:07:04.776Z,2.60
2023-06-29T00:10:09.081Z,2.70
2023-06-29T00:13:10.575Z,2.85
2023-06-29T00:16:12.142Z,2.78
2023-06-29T00:19:15.610Z,2.47
2023-06-29T00:22:18.521Z,2.33
2023-06-29T00:25:20.622Z,2.53
2023-06-29T00:28:22.224Z,2.72
2023-06-29T00:31:25.353Z,2.47
2023-06-29T00:34:29.883Z,2.63
2023-06-29T00:37:38.945Z,2.65
2023-06-29T00:40:40.491Z,2.65
2023-06-29T00:44:09.023Z,2.65
2023-06-29T00:47:23.030Z,2.78
2023-06-29T00:50:25.669Z,2.97
2023-06-29T00:53:36.167Z,2.80
2023-06-29T00:56:38.673Z,2.78
2023-06-29T00:59:40.205Z,2.85
2023-06-29T01:02:47.767Z,2.80
2023-06-29T01:05:51.829Z,2.80
2023-06-29T01:09:13.467Z,2.85
2023-06-29T01:12:16.781Z,2.75
2023-06-29T01:15:28.257Z,2.60
2023-06-29T01:18:31.655Z,2.65
2023-06-29T01:21:38.679Z,2.47
2023-06-29T01:24:43.453Z,2.55
2023-06-29T01:28:10.274Z,2.78
2023-06-29T01:34:22.568Z,2.60
2023-06-29T01:37:29.594Z,2.78
2023-06-29T01:40:38.167Z,2.80
2023-06-29T01:44:12.644Z,2.67
2023-06-29T01:47:17.032Z,2.75
2023-06-29T01:50:26.570Z,2.60
2023-06-29T01:53:32.905Z,2.67
2023-06-29T01:56:38.360Z,2.58
2023-06-29T01:59:40.901Z,2.83
2023-06-29T02:02:43.082Z,2.80
2023-06-29T02:05:48.140Z,2.70
2023-06-29T02:08:52.969Z,2.70
2023-06-29T02:12:09.362Z,2.50
2023-06-29T02:18:20.997Z,2.50
2023-06-29T02:21:22.636Z,2.78
2023-06-29T02:27:39.990Z,2.75
2023-06-29T02:30:41.670Z,2.78
2023-06-29T02:33:53.400Z,2.72
2023-06-29T02:36:56.698Z,2.75
2023-06-29T02:40:13.699Z,3.08
2023-06-29T02:43:16.494Z,2.90
2023-06-29T02:46:25.817Z,2.75
2023-06-29T02:49:27.719Z,2.55
2023-06-29T02:52:35.671Z,2.65
2023-06-29T02:55:45.393Z,2.88
2023-06-29T02:58:47.151Z,2.83
2023-06-29T03:01:57.206Z,3.10
2023-06-29T03:04:58.789Z,3.08
2023-06-29T03:08:03.305Z,2.70
2023-06-29T03:11:07.008Z,2.75
2023-06-29T03:14:15.974Z,3.42
2023-06-29T03:17:17.617Z,3.33
2023-06-29T03:20:26.551Z,2.92
2023-06-29T03:23:37.342Z,2.88
2023-06-29T03:26:39.792Z,2.83
2023-06-29T03:29:44.350Z,2.88
2023-06-29T03:32:46.029Z,2.53
2023-06-29T03:35:50.444Z,2.78
2023-06-29T03:38:52.260Z,3.10
2023-06-29T03:41:53.829Z,2.80
2023-06-29T03:48:21.154Z,2.65
2023-06-29T03:51:24.001Z,3.00
2023-06-29T03:54:26.871Z,2.92
2023-06-29T04:00:44.027Z,2.97
2023-06-29T04:03:46.079Z,2.80
2023-06-29T04:06:47.754Z,2.80
2023-06-29T04:09:51.700Z,2.88
2023-06-29T04:12:53.207Z,2.60
2023-06-29T04:19:10.473Z,2.70
2023-06-29T04:22:12.079Z,2.92
2023-06-29T04:25:13.835Z,2.78
2023-06-29T04:28:15.486Z,2.80
2023-06-29T04:31:17.109Z,3.13
2023-06-29T04:34:18.841Z,3.00
2023-06-29T04:37:39.551Z,2.92
2023-06-29T04:40:41.171Z,3.03
2023-06-29T04:43:52.323Z,3.13
2023-06-29T04:46:54.042Z,2.80
2023-06-29T04:49:57.975Z,3.03
2023-06-29T04:53:00.294Z,2.90
2023-06-29T04:56:05.270Z,2.92
2023-06-29T05:02:25.170Z,2.65
2023-06-29T05:05:29.019Z,2.63
2023-06-29T05:08:33.385Z,2.85
2023-06-29T05:11:35.686Z,3.10
2023-06-29T05:14:37.303Z,3.35
2023-06-29T05:17:38.894Z,3.20
2023-06-29T05:20:40.434Z,2.72
2023-06-29T05:24:10.331Z,2.92
2023-06-29T05:27:12.055Z,3.25
2023-06-29T05:30:14.594Z,3.40
2023-06-29T05:33:22.212Z,3.28
2023-06-29T05:36:23.755Z,3.55
2023-06-29T05:39:28.046Z,3.60
2023-06-29T05:42:32.514Z,3.45
2023-06-29T05:45:43.309Z,3.80
2023-06-29T05:48:45.034Z,3.53
2023-06-29T05:52:01.001Z,3.83
2023-06-29T05:55:27.769Z,3.65
2023-06-29T06:01:46.281Z,3.70
2023-06-29T06:05:09.803Z,3.03
2023-06-29T06:08:12.321Z,3.80
2023-06-29T06:11:14.997Z,4.00
2023-06-29T06:14:17.040Z,4.00
2023-06-29T06:17:18.886Z,4.10
2023-06-29T06:20:20.510Z,3.95
2023-06-29T06:23:25.045Z,3.78
2023-06-29T06:26:27.071Z,3.83
2023-06-29T06:29:31.739Z,3.67
2023-06-29T06:32:33.359Z,3.80
2023-06-29T06:35:37.014Z,4.10
2023-06-29T06:38:49.495Z,4.15
2023-06-29T06:41:51.961Z,3.90
2023-06-29T06:45:00.936Z,4.20
2023-06-29T06:48:02.542Z,3.80
2023-06-29T06:51:08.074Z,4.13
2023-06-29T06:54:11.775Z,4.50
2023-06-29T06:57:13.366Z,4.00
2023-06-29T07:00:15.499Z,4.63
2023-06-29T07:03:17.195Z,5.00
2023-06-29T07:06:19.717Z,4.53
2023-06-29T07:09:21.389Z,4.72
2023-06-29T07:12:32.215Z,4.22
2023-06-29T07:15:33.781Z,4.35
2023-06-29T07:18:39.261Z,4.45
2023-06-29T07:21:43.486Z,4.13
2023-06-29T07:24:45.166Z,3.80
2023-06-29T07:27:54.026Z,4.03
2023-06-29T07:31:14.368Z,4.10
2023-06-29T07:34:16.367Z,3.88
2023-06-29T07:37:19.981Z,3.83
2023-06-29T07:40:29.504Z,3.80
2023-06-29T07:43:31.881Z,3.88
2023-06-29T07:46:33.579Z,3.90
2023-06-29T07:49:42.623Z,4.50
2023-06-29T07:52:44.205Z,3.80
2023-06-29T07:56:23.548Z,4.18
2023-06-29T07:59:33.863Z,3.33
2023-06-29T08:02:35.443Z,3.45
2023-06-29T08:08:41.911Z,3.80
2023-06-29T08:11:50.759Z,3.35
2023-06-29T08:14:52.288Z,3.42
2023-06-29T08:17:53.950Z,4.07
2023-06-29T08:20:55.511Z,3.35
2023-06-29T08:24:03.375Z,3.47
2023-06-29T08:27:05.179Z,3.38
2023-06-29T08:30:25.418Z,3.60
2023-06-29T08:33:27.407Z,3.65
2023-06-29T08:36:34.526Z,3.58
2023-06-29T08:39:36.234Z,3.65
2023-06-29T08:42:41.360Z,3.60
2023-06-29T08:45:44.830Z,3.42
2023-06-29T08:48:47.151Z,3.40
2023-06-29T08:51:52.063Z,3.50
2023-06-29T08:54:54.434Z,3.55
2023-06-29T08:57:56.070Z,3.42
2023-06-29T09:00:58.682Z,3.50
2023-06-29T09:04:03.550Z,3.10
2023-06-29T09:07:07.769Z,3.22
2023-06-29T09:10:12.170Z,3.17
2023-06-29T09:13:14.701Z,3.30
2023-06-29T09:16:31.529Z,3.45
2023-06-29T09:19:33.281Z,3.28
2023-06-29T09:22:52.474Z,3.15
2023-06-29T09:26:05.410Z,3.40
2023-06-29T09:29:25.453Z,3.05
2023-06-29T09:32:29.920Z,3.15
2023-06-29T09:35:31.457Z,3.17
2023-06-29T09:38:33.591Z,3.22
2023-06-29T09:42:08.067Z,3.50
2023-06-29T09:45:33.445Z,2.90
2023-06-29T09:52:03.159Z,2.97
2023-06-29T09:55:04.943Z,2.90
2023-06-29T09:58:08.161Z,3.05
2023-06-29T10:01:10.961Z,2.95
2023-06-29T10:04:12.710Z,2.88
2023-06-29T10:07:20.834Z,3.10
2023-06-29T10:10:26.023Z,3.08
2023-06-29T10:16:42.006Z,2.70
2023-06-29T10:20:05.200Z,3.03
2023-06-29T10:23:08.602Z,3.00
2023-06-29T10:26:13.650Z,2.90
2023-06-29T10:29:17.589Z,2.70
2023-06-29T10:32:35.669Z,2.70
2023-06-29T10:35:37.758Z,2.65
2023-06-29T10:38:45.489Z,3.13
2023-06-29T10:41:49.623Z,2.92
2023-06-29T10:44:51.763Z,3.10
2023-06-29T10:48:05.803Z,3.05
2023-06-29T10:51:15.035Z,2.92
2023-06-29T10:54:17.577Z,3.00
2023-06-29T10:57:31.849Z,2.92
2023-06-29T11:00:40.927Z,2.83
2023-06-29T11:03:43.367Z,2.65
2023-06-29T11:06:45.058Z,2.65
2023-06-29T11:10:07.359Z,3.05
2023-06-29T11:13:10.594Z,2.83
2023-06-29T11:16:13.819Z,2.55
2023-06-29T11:19:15.491Z,2.70
2023-06-29T11:22:20.912Z,2.70
2023-06-29T11:25:22.640Z,2.60
2023-06-29T11:28:29.457Z,2.47
2023-06-29T11:31:31.560Z,2.50
2023-06-29T11:34:35.524Z,2.40
2023-06-29T11:37:41.375Z,2.58
2023-06-29T11:40:42.963Z,2.65
2023-06-29T11:43:45.127Z,2.70
2023-06-29T11:46:54.704Z,2.60
2023-06-29T11:50:09.129Z,2.25
2023-06-29T11:53:11.701Z,2.50
2023-06-29T11:56:38.467Z,2.35
2023-06-29T11:59:43.098Z,2.58
2023-06-29T12:02:46.002Z,2.65
2023-06-29T12:05:48.614Z,2.60
2023-06-29T12:08:54.920Z,2.35
2023-06-29T12:12:09.685Z,2.63
2023-06-29T12:15:16.709Z,2.63
2023-06-29T12:18:29.259Z,2.50
2023-06-29T12:21:42.494Z,2.28
2023-06-29T12:24:53.742Z,2.30
2023-06-29T12:27:55.327Z,2.20
2023-06-29T12:31:09.696Z,2.30
2023-06-29T12:34:11.266Z,2.33
2023-06-29T12:37:15.833Z,2.67
2023-06-29T12:40:19.811Z,2.47
2023-06-29T12:43:21.358Z,2.30
2023-06-29T12:49:43.610Z,2.50
2023-06-29T12:52:48.218Z,2.50
2023-06-29T12:55:49.932Z,2.75
2023-06-29T12:58:51.618Z,2.97
2023-06-29T13:02:23.519Z,2.88
2023-06-29T13:05:22.880Z,2.70
2023-06-29T13:08:36.687Z,3.20
2023-06-29T13:11:45.485Z,3.03
2023-06-29T13:14:51.148Z,3.05
2023-06-29T13:17:55.974Z,3.28
2023-06-29T13:21:01.005Z,3.00
2023-06-29T13:27:05.485Z,2.92
2023-06-29T13:30:08.787Z,3.15
2023-06-29T13:33:17.696Z,3.38
2023-06-29T13:36:19.208Z,3.47
2023-06-29T13:39:20.742Z,3.28
2023-06-29T13:42:23.669Z,3.63
2023-06-29T13:45:25.324Z,3.67
2023-06-29T13:48:27.912Z,3.53
2023-06-29T13:51:30.615Z,3.70
2023-06-29T13:54:32.243Z,3.63
2023-06-29T13:57:36.795Z,3.80
2023-06-29T14:00:38.878Z,3.53
2023-06-29T14:03:40.586Z,3.30
2023-06-29T14:06:48.061Z,3.63
2023-06-29T14:09:55.899Z,3.10
2023-06-29T14:12:59.604Z,3.65
2023-06-29T14:16:04.393Z,3.85
2023-06-29T14:19:06.728Z,3.63
2023-06-29T14:22:09.747Z,3.63
2023-06-29T14:25:11.376Z,3.50
2023-06-29T14:28:19.987Z,3.40
2023-06-29T14:31:21.651Z,3.30
2023-06-29T14:34:23.372Z,4.00
2023-06-29T14:37:26.045Z,3.22
2023-06-29T14:40:27.577Z,3.63
2023-06-29T14:43:30.223Z,3.55
2023-06-29T14:46:33.392Z,3.78
2023-06-29T14:49:35.207Z,3.90
2023-06-29T14:52:39.395Z,3.63
2023-06-29T14:55:40.983Z,3.65
2023-06-29T14:58:42.922Z,3.75
2023-06-29T15:01:47.817Z,3.88
2023-06-29T15:07:58.800Z,3.47
2023-06-29T15:11:00.881Z,3.50
2023-06-29T15:14:02.381Z,3.88
2023-06-29T15:17:09.594Z,4.05
2023-06-29T15:20:16.401Z,3.75
2023-06-29T15:23:18.094Z,4.53
2023-06-29T15:26:23.942Z,3.97
2023-06-29T15:29:28.200Z,3.88
2023-06-29T15:32:33.668Z,4.03
2023-06-29T15:38:53.631Z,4.50
2023-06-29T15:41:56.852Z,4.50
2023-06-29T15:44:58.522Z,4.15
2023-06-29T15:48:00.267Z,4.40
2023-06-29T15:51:03.422Z,4.57
2023-06-29T15:54:05.182Z,4.68
2023-06-29T15:57:06.959Z,4.53
2023-06-29T16:00:09.085Z,4.35
2023-06-29T16:03:19.681Z,4.22
2023-06-29T16:06:29.756Z,4.03
2023-06-29T16:09:35.585Z,4.72
2023-06-29T16:12:37.156Z,4.28
2023-06-29T16:15:38.754Z,4.65
2023-06-29T16:18:41.427Z,4.03
2023-06-29T16:21:43.461Z,4.45
2023-06-29T16:24:45.022Z,4.38
2023-06-29T16:27:52.627Z,4.13
2023-06-29T16:30:55.022Z,4.15
2023-06-29T16:33:56.547Z,4.57
2023-06-29T16:36:59.161Z,4.38
2023-06-29T16:40:00.769Z,4.25
2023-06-29T16:43:02.378Z,4.50
2023-06-29T16:46:06.092Z,4.55
2023-06-29T16:49:09.949Z,4.32
2023-06-29T16:52:13.731Z,4.40
2023-06-29T16:55:22.469Z,4.45
2023-06-29T16:58:27.691Z,4.45
2023-06-29T17:01:29.312Z,4.35
2023-06-29T17:04:41.241Z,4.15
2023-06-29T17:07:42.809Z,4.32
2023-06-29T17:10:44.379Z,4.35
2023-06-29T17:13:46.245Z,4.35
2023-06-29T17:16:47.818Z,3.90
2023-06-29T17:19:50.199Z,4.32
2023-06-29T17:22:52.246Z,4.65
2023-06-29T17:25:53.804Z,4.28
2023-06-29T17:28:55.438Z,3.92
2023-06-29T17:31:57.194Z,4.10
2023-06-29T17:34:58.923Z,4.40
2023-06-29T17:38:04.669Z,4.15
2023-06-29T17:41:06.215Z,4.40
2023-06-29T17:44:07.715Z,4.10
2023-06-29T17:47:09.354Z,4.50
2023-06-29T17:50:16.030Z,4.47
2023-06-29T17:53:17.588Z,4.40
2023-06-29T17:56:24.031Z,4.43
2023-06-29T17:59:25.616Z,4.40
2023-06-29T18:02:32.764Z,4.82
2023-06-29T18:05:34.432Z,4.03
2023-06-29T18:08:35.969Z,4.65
2023-06-29T18:11:37.484Z,4.70
2023-06-29T18:14:46.018Z,4.10
2023-06-29T18:17:56.570Z,4.63
2023-06-29T18:21:00.838Z,4.53
2023-06-29T18:24:06.595Z,4.90
2023-06-29T18:33:37.401Z,4.20
2023-06-29T18:36:38.936Z,4.70
2023-06-29T18:39:40.694Z,4.53
2023-06-29T18:42:42.270Z,5.20
2023-06-29T18:45:44.124Z,4.93
2023-06-29T18:49:05.432Z,4.78
2023-06-29T18:52:07.893Z,4.63
2023-06-29T18:55:12.549Z,4.68
2023-06-29T18:58:14.242Z,4.72
2023-06-29T19:01:16.749Z,4.88
2023-06-29T19:04:18.315Z,4.65
2023-06-29T19:07:22.703Z,4.80
2023-06-29T19:10:24.348Z,4.80
2023-06-29T19:13:27.311Z,4.68
2023-06-29T19:16:29.329Z,4.90
2023-06-29T19:19:34.423Z,4.82
2023-06-29T19:22:36.326Z,5.10
2023-06-29T19:25:42.900Z,4.20
2023-06-29T19:28:46.300Z,4.78
2023-06-29T19:31:50.098Z,4.50
2023-06-29T19:34:52.145Z,4.40
2023-06-29T19:37:54.051Z,4.68
2023-06-29T19:40:55.711Z,4.88
2023-06-29T19:43:57.266Z,5.10
2023-06-29T19:46:58.961Z,4.28
2023-06-29T19:50:00.665Z,4.50
2023-06-29T19:53:05.771Z,4.55
2023-06-29T19:56:09.730Z,4.50
2023-06-29T19:59:11.609Z,4.38
2023-06-29T20:02:13.391Z,4.50
2023-06-29T20:05:15.246Z,4.80
2023-06-29T20:08:20.956Z,4.25
2023-06-29T20:11:23.999Z,4.55
2023-06-29T20:14:30.141Z,4.18
2023-06-29T20:17:32.388Z,4.63
2023-06-29T20:20:33.964Z,4.68
2023-06-29T20:23:37.411Z,4.65
2023-06-29T20:26:41.249Z,4.75
2023-06-29T20:29:42.753Z,4.68
2023-06-29T20:32:47.494Z,5.03
2023-06-29T20:35:49.086Z,4.37
2023-06-29T20:38:50.618Z,4.20
2023-06-29T20:41:52.194Z,4.80
2023-06-29T20:48:12.993Z,4.43
2023-06-29T20:51:18.524Z,4.43
2023-06-29T20:54:20.252Z,4.70
2023-06-29T20:57:22.545Z,4.47
2023-06-29T21:00:27.162Z,4.60
2023-06-29T21:03:34.300Z,4.28
2023-06-29T21:06:36.980Z,4.68
2023-06-29T21:09:38.587Z,4.45
2023-06-29T21:12:40.470Z,4.68
2023-06-29T21:15:42.288Z,4.57
2023-06-29T21:18:44.368Z,4.55
2023-06-29T21:21:46.617Z,4.70
2023-06-29T21:24:48.580Z,4.20
2023-06-29T21:27:52.679Z,4.50
2023-06-29T21:30:54.537Z,4.60
2023-06-29T21:33:56.345Z,4.70
2023-06-29T21:37:00.738Z,4.57
2023-06-29T21:40:02.297Z,4.60
2023-06-29T21:43:06.418Z,4.78
2023-06-29T21:46:08.479Z,4.78
2023-06-29T21:49:10.341Z,4.53
2023-06-29T21:52:11.944Z,4.82
2023-06-29T21:55:17.943Z,4.38
2023-06-29T21:58:22.430Z,4.40
2023-06-29T22:01:30.251Z,4.65
2023-06-29T22:04:34.169Z,4.57
2023-06-29T22:07:40.921Z,4.65
2023-06-29T22:10:42.507Z,4.45
2023-06-29T22:13:59.304Z,4.45
2023-06-29T22:17:08.383Z,4.32
2023-06-29T22:20:14.440Z,4.57
2023-06-29T22:23:16.060Z,4.97
2023-06-29T22:26:23.727Z,4.45
2023-06-29T22:29:26.988Z,3.95
2023-06-29T22:32:38.930Z,4.55
2023-06-29T22:35:42.857Z,4.55
2023-06-29T22:38:46.573Z,4.50
2023-06-29T22:41:48.250Z,4.10
2023-06-29T22:44:50.215Z,5.05
2023-06-29T22:47:52.528Z,4.90
2023-06-29T22:50:56.679Z,4.90
2023-06-29T22:54:01.010Z,4.93
2023-06-29T22:57:02.792Z,5.13
2023-06-29T23:00:07.942Z,5.13
2023-06-29T23:03:09.628Z,5.00
2023-06-29T23:06:11.693Z,5.22
2023-06-29T23:09:22.077Z,4.78
2023-06-29T23:12:26.853Z,4.75
2023-06-29T23:15:30.707Z,5.13
2023-06-29T23:18:32.251Z,5.30
2023-06-29T23:21:33.762Z,5.85
2023-06-29T23:24:35.871Z,5.93
2023-06-29T23:27:55.658Z,6.15
2023-06-29T23:30:57.633Z,7.00
2023-06-29T23:34:04.333Z,6.80
2023-06-29T23:37:08.674Z,6.15
2023-06-29T23:40:16.836Z,6.50
2023-06-29T23:43:18.632Z,5.45
2023-06-29T23:46:26.400Z,5.95
2023-06-29T23:49:28.268Z,6.70
2023-06-29T23:52:32.888Z,7.13
2023-06-29T23:55:34.625Z,7.47
2023-06-29T23:58:39.710Z,6.30
